Etusivu
METAR-TAF:

METAR-TAF

Lentoasemat :

Chōfun lentoasema

Chōfu, Japani

Leveyspiiri: 35-40N, Pituuspiiri: 139-32E, korkeus merenpinnasta: 41 m

Tämänhetkinen sää

Tämä raportti tehtiin 12 tuntia ja 4 minuuttia sitten, kello 07.00 UTC
Tuuli 3 kn eri suunnista
Lämpötila 18°C
Kosteus 22%
Ilmanpaine 1012 hPa
Näkyvyys 10 km tai enemmän
Muutamia pilviä 3000 ft:n korkeudessa
Hajanaisia pilviä 14000 ft:n korkeudessa
Hajonneita pilviä

METAR: RJTF 190700Z VRB03KT 9999 FEW030 SCT140 BKN/// 18/M04 Q1012

Aika: 04:04 (19:04 UTC)


TAF: puuttuu

Säähavainnot ja -ennusteet yli 4000 lentoasemalta (METAR- ja TAF-raportit).

Käytössä olevat sääasemat on merkitty karttaan keltaisilla ja punaisilla pisteillä.

Aseta hiiri pisteen päälle nähdäksesi sääaseman nimen.

Klikkaa sitten nähdäksesi säähavainnot ja -ennusteet.

Kartan vaihtaminen: klikkaa mustalla rastilla varustettuja vihreitä pisteitä, niin voit zoomata sisään; viivalla varustettua vihreää pistettä, niin voit zoomata ulos tai vihreitä nuolia, niin pääset viereisille kartoille.


METAR-TAF: